createdAt,value
2022-11-15T00:02:40.749Z,98150.81
2022-11-15T00:05:27.696Z,98150.75
2022-11-15T00:08:14.460Z,98152.75
2022-11-15T00:11:02.446Z,98141.81
2022-11-15T00:13:49.103Z,98148.75
2022-11-15T00:16:36.999Z,98146.41
2022-11-15T00:19:23.666Z,98160.38
2022-11-15T00:22:10.354Z,98153.06
2022-11-15T00:24:57.001Z,98127.59
2022-11-15T00:27:43.586Z,98154.13
2022-11-15T00:30:30.397Z,98151.91
2022-11-15T00:33:18.499Z,98152.56
2022-11-15T00:36:06.042Z,98141.13
2022-11-15T00:38:52.437Z,98145.69
2022-11-15T00:41:39.196Z,98144.38
2022-11-15T00:44:25.824Z,98133.88
2022-11-15T00:47:12.524Z,98130.22
2022-11-15T00:50:00.977Z,98129.41
2022-11-15T00:52:47.297Z,98118.47
2022-11-15T00:55:34.096Z,98119.38
2022-11-15T00:58:20.633Z,98110.38
2022-11-15T01:01:08.165Z,98120.81
2022-11-15T01:03:59.976Z,98113.59
2022-11-15T01:06:49.166Z,98120.78
2022-11-15T01:09:35.417Z,98110.66
2022-11-15T01:12:22.213Z,98115.53
2022-11-15T01:15:09.203Z,98100.16
2022-11-15T01:17:55.999Z,98106.41
2022-11-15T01:20:43.670Z,98109.28
2022-11-15T01:23:31.843Z,98104.84
2022-11-15T01:26:18.652Z,98105.00
2022-11-15T01:29:05.373Z,98097.25
2022-11-15T01:31:52.040Z,98091.31
2022-11-15T01:34:38.578Z,98085.22
2022-11-15T01:37:25.477Z,98075.13
2022-11-15T01:40:13.817Z,98089.22
2022-11-15T01:43:00.122Z,98088.22
2022-11-15T01:45:48.630Z,98081.44
2022-11-15T01:48:36.101Z,98082.44
2022-11-15T01:51:25.590Z,98073.00
2022-11-15T01:54:14.989Z,98075.69
2022-11-15T01:57:05.463Z,98064.34
2022-11-15T01:59:52.516Z,98059.50
2022-11-15T02:02:40.155Z,98071.78
2022-11-15T02:05:26.937Z,98064.25
2022-11-15T02:08:20.770Z,98066.31
2022-11-15T02:11:09.445Z,98067.16
2022-11-15T02:13:58.059Z,98062.00
2022-11-15T02:16:49.604Z,98057.22
2022-11-15T02:19:50.302Z,98068.66
2022-11-15T02:22:41.979Z,98063.13
2022-11-15T02:25:38.724Z,98061.88
2022-11-15T02:28:40.303Z,98051.03
2022-11-15T02:31:30.383Z,98049.47
2022-11-15T02:34:21.693Z,98044.31
2022-11-15T02:37:13.930Z,98040.72
2022-11-15T02:40:04.465Z,98041.34
2022-11-15T02:43:18.421Z,98036.19
2022-11-15T02:46:09.666Z,98032.53
2022-11-15T02:48:57.315Z,98029.50
2022-11-15T02:51:45.421Z,98028.19
2022-11-15T02:54:33.092Z,98024.59
2022-11-15T02:57:21.847Z,98009.31
2022-11-15T03:00:09.528Z,98014.81
2022-11-15T03:03:07.908Z,98020.72
2022-11-15T03:06:00.534Z,98013.44
2022-11-15T03:08:52.886Z,98010.28
2022-11-15T03:11:41.942Z,98010.47
2022-11-15T03:14:31.804Z,97997.22
2022-11-15T03:17:21.191Z,97998.50
2022-11-15T03:20:09.085Z,98001.22
2022-11-15T03:22:58.826Z,98000.41
2022-11-15T03:25:46.912Z,97986.09
2022-11-15T03:28:35.375Z,97998.75
2022-11-15T03:31:47.045Z,97999.31
2022-11-15T03:34:39.098Z,97998.38
2022-11-15T03:37:28.410Z,98000.66
2022-11-15T03:40:16.379Z,97990.91
2022-11-15T03:43:06.810Z,97983.97
2022-11-15T03:45:55.528Z,97991.34
2022-11-15T03:48:46.124Z,97989.94
2022-11-15T03:51:32.757Z,97983.13
2022-11-15T03:54:19.102Z,97979.84
2022-11-15T03:57:07.199Z,97984.66
2022-11-15T03:59:53.697Z,97977.28
2022-11-15T04:02:40.402Z,97972.03
2022-11-15T04:05:27.035Z,97973.63
2022-11-15T04:08:13.677Z,97975.63
2022-11-15T04:11:02.420Z,97984.09
2022-11-15T04:13:50.343Z,97985.03
2022-11-15T04:16:42.460Z,97983.03
2022-11-15T04:19:47.712Z,97983.41
2022-11-15T04:22:52.143Z,97985.25
2022-11-15T04:25:38.906Z,97983.84
2022-11-15T04:28:25.406Z,97977.63
2022-11-15T04:31:13.422Z,97974.59
2022-11-15T04:34:00.212Z,97957.59
2022-11-15T04:37:03.811Z,97961.22
2022-11-15T04:39:50.306Z,97960.25
2022-11-15T04:42:36.785Z,97960.50
2022-11-15T04:45:23.506Z,97959.34
2022-11-15T04:48:11.476Z,97948.66
2022-11-15T04:50:57.810Z,97950.66
2022-11-15T04:53:44.384Z,97954.88
2022-11-15T04:56:30.867Z,97949.25
2022-11-15T04:59:17.482Z,97945.00
2022-11-15T05:02:04.263Z,97936.22
2022-11-15T05:04:51.094Z,97939.38
2022-11-15T05:07:37.787Z,97936.72
2022-11-15T05:10:24.339Z,97941.13
2022-11-15T05:13:10.913Z,97938.06
2022-11-15T05:15:57.675Z,97935.03
2022-11-15T05:18:44.529Z,97942.41
2022-11-15T05:21:32.373Z,97944.78
2022-11-15T05:24:19.080Z,97935.25
2022-11-15T05:27:05.818Z,97940.53
2022-11-15T05:29:52.508Z,97936.91
2022-11-15T05:32:39.112Z,97935.25
2022-11-15T05:35:31.677Z,97931.28
2022-11-15T05:38:19.601Z,97931.16
2022-11-15T05:41:06.941Z,97927.66
2022-11-15T05:43:53.629Z,97919.41
2022-11-15T05:46:41.207Z,97921.00
2022-11-15T05:49:32.100Z,97921.09
2022-11-15T05:52:20.725Z,97913.56
2022-11-15T05:55:10.638Z,97913.44
2022-11-15T05:57:57.072Z,97917.00
2022-11-15T06:00:44.198Z,97915.38
2022-11-15T06:03:31.559Z,97917.13
2022-11-15T06:06:18.680Z,97917.91
2022-11-15T06:09:05.393Z,97923.31
2022-11-15T06:11:53.558Z,97923.53
2022-11-15T06:14:41.338Z,97919.31
2022-11-15T06:17:28.150Z,97920.41
2022-11-15T06:20:14.847Z,97930.09
2022-11-15T06:23:03.895Z,97920.75
2022-11-15T06:25:50.746Z,97923.63
2022-11-15T06:28:38.663Z,97916.53
2022-11-15T06:31:25.544Z,97920.88
2022-11-15T06:34:12.539Z,97920.97
2022-11-15T06:36:59.350Z,97922.41
2022-11-15T06:39:46.057Z,97917.53
2022-11-15T06:42:32.810Z,97918.69
2022-11-15T06:45:20.884Z,97920.31
2022-11-15T06:48:08.004Z,97929.25
2022-11-15T06:50:55.519Z,97925.81
2022-11-15T06:53:42.070Z,97922.41
2022-11-15T06:56:28.880Z,97906.53
2022-11-15T06:59:15.642Z,97925.06
2022-11-15T07:02:03.757Z,97936.31
2022-11-15T07:04:50.754Z,97935.25
2022-11-15T07:07:37.517Z,97929.03
2022-11-15T07:10:26.416Z,97925.13
2022-11-15T07:13:12.953Z,97927.28
2022-11-15T07:15:59.638Z,97934.91
2022-11-15T07:18:47.863Z,97924.59
2022-11-15T07:21:34.894Z,97936.41
2022-11-15T07:24:21.556Z,97940.56
2022-11-15T07:27:08.138Z,97945.97
2022-11-15T07:29:54.763Z,97947.28
2022-11-15T07:32:41.426Z,97942.72
2022-11-15T07:35:31.033Z,97939.13
2022-11-15T07:38:20.443Z,97937.13
2022-11-15T07:41:08.442Z,97934.66
2022-11-15T07:43:55.431Z,97941.00
2022-11-15T07:46:42.348Z,97939.59
2022-11-15T07:49:29.110Z,97936.13
2022-11-15T07:52:17.063Z,97942.75
2022-11-15T07:55:03.786Z,97942.66
2022-11-15T07:57:50.782Z,97939.88
2022-11-15T08:00:38.736Z,97929.78
2022-11-15T08:03:25.380Z,97931.31
2022-11-15T08:06:12.128Z,97933.53
2022-11-15T08:09:00.304Z,97933.28
2022-11-15T08:11:46.927Z,97937.06
2022-11-15T08:14:33.681Z,97934.34
2022-11-15T08:17:20.491Z,97928.09
2022-11-15T08:20:08.282Z,97922.69
2022-11-15T08:22:55.000Z,97920.31
2022-11-15T08:25:43.313Z,97921.88
2022-11-15T08:28:29.984Z,97918.22
2022-11-15T08:31:19.311Z,97903.56
2022-11-15T08:34:06.391Z,97904.56
2022-11-15T08:36:53.501Z,97906.75
2022-11-15T08:39:40.111Z,97904.25
2022-11-15T08:42:28.180Z,97902.53
2022-11-15T08:45:15.094Z,97895.94
2022-11-15T08:48:03.283Z,97895.28
2022-11-15T08:50:49.819Z,97889.75
2022-11-15T08:53:36.841Z,97892.19
2022-11-15T08:56:23.564Z,97886.31
2022-11-15T08:59:11.423Z,97890.09
2022-11-15T09:01:58.228Z,97884.28
2022-11-15T09:04:46.022Z,97885.94
2022-11-15T09:07:33.287Z,97878.28
2022-11-15T09:10:20.424Z,97881.31
2022-11-15T09:13:07.217Z,97871.81
2022-11-15T09:15:59.397Z,97865.50
2022-11-15T09:18:46.029Z,97865.16
2022-11-15T09:21:34.238Z,97863.56
2022-11-15T09:24:21.849Z,97862.06
2022-11-15T09:27:08.861Z,97871.75
2022-11-15T09:29:55.660Z,97872.72
2022-11-15T09:32:43.698Z,97868.22
2022-11-15T09:35:30.237Z,97871.81
2022-11-15T09:38:16.895Z,97858.06
2022-11-15T09:41:21.791Z,97862.94
2022-11-15T09:44:18.001Z,97857.66
2022-11-15T09:47:17.791Z,97843.19
2022-11-15T09:50:11.453Z,97848.84
2022-11-15T09:52:41.419Z,97851.81
2022-11-15T09:55:12.350Z,97853.44
2022-11-15T09:57:42.597Z,97859.59
2022-11-15T10:00:44.926Z,97846.63
2022-11-15T10:03:11.014Z,97847.22
2022-11-15T10:05:41.514Z,97839.00
2022-11-15T10:08:15.575Z,97831.09
2022-11-15T10:10:44.797Z,97833.59
2022-11-15T10:13:15.369Z,97839.53
2022-11-15T10:15:48.679Z,97832.16
2022-11-15T10:18:19.179Z,97828.09
2022-11-15T10:20:50.943Z,97829.50
2022-11-15T10:23:20.493Z,97822.78
2022-11-15T10:25:48.537Z,97820.78
2022-11-15T10:28:17.851Z,97817.59
2022-11-15T10:30:46.412Z,97811.44
2022-11-15T10:33:18.832Z,97812.50
2022-11-15T10:35:46.870Z,97781.88
2022-11-15T10:38:16.534Z,97806.75
2022-11-15T10:40:45.819Z,97809.16
2022-11-15T10:43:18.254Z,97802.31
2022-11-15T10:45:46.765Z,97804.22
2022-11-15T10:48:27.429Z,97803.63
2022-11-15T10:50:56.586Z,97799.28
2022-11-15T10:53:32.690Z,97778.56
2022-11-15T10:56:02.829Z,97780.53
2022-11-15T10:58:34.586Z,97777.44
2022-11-15T11:01:13.453Z,97777.94
2022-11-15T11:03:42.722Z,97787.59
2022-11-15T11:06:14.575Z,97786.09
2022-11-15T11:08:55.538Z,97782.59
2022-11-15T11:11:23.905Z,97765.19
2022-11-15T11:13:54.468Z,97768.56
2022-11-15T11:16:28.459Z,97775.75
2022-11-15T11:19:03.928Z,97772.63
2022-11-15T11:21:40.400Z,97763.91
2022-11-15T11:24:14.784Z,97760.63
2022-11-15T11:26:47.249Z,97755.78
2022-11-15T11:29:23.077Z,97752.56
2022-11-15T11:31:57.270Z,97744.19
2022-11-15T11:34:32.285Z,97739.28
2022-11-15T11:37:05.580Z,97728.25
2022-11-15T11:39:42.475Z,97722.38
2022-11-15T11:42:15.674Z,97724.38
2022-11-15T11:44:49.854Z,97718.91
2022-11-15T11:47:22.871Z,97723.63
2022-11-15T11:49:52.330Z,97729.88
2022-11-15T11:52:24.098Z,97729.31
2022-11-15T11:54:57.260Z,97729.06
2022-11-15T11:57:31.277Z,97717.91
2022-11-15T12:00:02.742Z,97720.31
2022-11-15T12:02:43.015Z,97718.69
2022-11-15T12:05:13.917Z,97710.72
2022-11-15T12:07:43.834Z,97700.81
2022-11-15T12:10:21.346Z,97708.13
2022-11-15T12:12:52.806Z,97698.56
2022-11-15T12:15:22.842Z,97698.28
2022-11-15T12:17:51.298Z,97697.19
2022-11-15T12:20:20.805Z,97690.34
2022-11-15T12:22:51.623Z,97691.97
2022-11-15T12:25:23.062Z,97681.06
2022-11-15T12:27:56.425Z,97685.94
2022-11-15T12:30:25.500Z,97676.31
2022-11-15T12:32:55.633Z,97680.03
2022-11-15T12:35:26.196Z,97682.72
2022-11-15T12:37:57.100Z,97672.28
2022-11-15T12:40:36.957Z,97669.56
2022-11-15T12:43:06.669Z,97665.00
2022-11-15T12:45:37.690Z,97665.44
2022-11-15T12:48:24.407Z,97664.19
2022-11-15T12:50:55.843Z,97660.28
2022-11-15T12:53:30.776Z,97649.72
2022-11-15T12:56:22.756Z,97641.97
2022-11-15T12:58:53.589Z,97642.50
2022-11-15T13:01:36.775Z,97637.28
2022-11-15T13:04:15.458Z,97634.19
2022-11-15T13:06:45.062Z,97628.09
2022-11-15T13:09:31.857Z,97627.31
2022-11-15T13:12:02.992Z,97627.31
2022-11-15T13:14:41.889Z,97625.69
2022-11-15T13:17:18.360Z,97618.94
2022-11-15T13:19:47.590Z,97623.53
2022-11-15T13:22:33.022Z,97616.44
2022-11-15T13:25:01.128Z,97608.56
2022-11-15T13:27:29.381Z,97605.03
2022-11-15T13:29:58.730Z,97598.75
2022-11-15T13:32:26.901Z,97598.75
2022-11-15T13:34:54.924Z,97598.78
2022-11-15T13:37:33.354Z,97574.03
2022-11-15T13:40:19.823Z,97584.13
2022-11-15T13:42:47.965Z,97582.78
2022-11-15T13:45:18.992Z,97577.94
2022-11-15T13:47:52.747Z,97564.59
2022-11-15T13:50:22.944Z,97565.16
2022-11-15T13:52:51.355Z,97560.50
2022-11-15T13:55:20.712Z,97558.59
2022-11-15T13:57:50.274Z,97558.53
2022-11-15T14:00:31.870Z,97559.72
2022-11-15T14:03:07.717Z,97562.16
2022-11-15T14:05:35.705Z,97549.34
2022-11-15T14:08:05.125Z,97553.09
2022-11-15T14:10:34.014Z,97546.69
2022-11-15T14:13:03.498Z,97549.38
2022-11-15T14:15:34.194Z,97549.34
2022-11-15T14:18:02.606Z,97538.19
2022-11-15T14:20:37.176Z,97545.59
2022-11-15T14:23:06.626Z,97545.84
2022-11-15T14:25:36.097Z,97543.41
2022-11-15T14:28:16.210Z,97528.75
2022-11-15T14:30:48.023Z,97529.56
2022-11-15T14:33:21.005Z,97519.44
2022-11-15T14:35:49.200Z,97513.78
2022-11-15T14:38:17.150Z,97524.41
2022-11-15T14:40:45.540Z,97511.59
2022-11-15T14:43:13.841Z,97505.94
2022-11-15T14:45:42.139Z,97503.78
2022-11-15T14:48:11.493Z,97496.97
2022-11-15T14:50:39.823Z,97494.00
2022-11-15T14:53:13.615Z,97490.19
2022-11-15T14:55:41.624Z,97490.19
2022-11-15T14:58:10.082Z,97491.28
2022-11-15T15:00:39.298Z,97486.94
2022-11-15T15:03:07.830Z,97487.16
2022-11-15T15:05:38.383Z,97471.72
2022-11-15T15:08:07.106Z,97465.78
2022-11-15T15:10:41.473Z,97452.19
2022-11-15T15:13:17.605Z,97447.28
2022-11-15T15:15:45.907Z,97455.41
2022-11-15T15:18:14.118Z,97455.16
2022-11-15T15:20:43.921Z,97460.84
2022-11-15T15:23:16.869Z,97451.94
2022-11-15T15:25:46.436Z,97447.31
2022-11-15T15:28:14.890Z,97445.44
2022-11-15T15:30:43.033Z,97452.72
2022-11-15T15:33:11.081Z,97448.13
2022-11-15T15:35:39.091Z,97443.50
2022-11-15T15:38:08.501Z,97437.81
2022-11-15T15:40:36.544Z,97441.34
2022-11-15T15:43:09.822Z,97446.22
2022-11-15T15:45:40.627Z,97431.03
2022-11-15T15:48:12.441Z,97433.75
2022-11-15T15:50:40.607Z,97425.06
2022-11-15T15:53:11.278Z,97424.78
2022-11-15T15:55:39.693Z,97420.13
2022-11-15T15:58:09.076Z,97421.19
2022-11-15T16:00:37.744Z,97420.66
2022-11-15T16:03:05.875Z,97411.13
2022-11-15T16:05:33.886Z,97400.84
2022-11-15T16:08:01.870Z,97403.03
2022-11-15T16:10:32.727Z,97402.25
2022-11-15T16:13:00.709Z,97392.19
2022-11-15T16:15:31.390Z,97392.97
2022-11-15T16:18:00.806Z,97384.38
2022-11-15T16:20:32.108Z,97390.84
2022-11-15T16:23:05.725Z,97396.75
2022-11-15T16:25:39.410Z,97388.91
2022-11-15T16:28:10.069Z,97378.59
2022-11-15T16:30:38.076Z,97385.63
2022-11-15T16:33:06.118Z,97371.53
2022-11-15T16:35:40.590Z,97379.94
2022-11-15T16:38:15.109Z,97366.41
2022-11-15T16:40:44.555Z,97374.00
2022-11-15T16:43:12.932Z,97372.88
2022-11-15T16:45:43.937Z,97363.41
2022-11-15T16:48:16.988Z,97363.69
2022-11-15T16:50:46.316Z,97357.41
2022-11-15T16:53:14.325Z,97363.94
2022-11-15T16:55:43.703Z,97355.00
2022-11-15T16:58:11.674Z,97349.84
2022-11-15T17:00:39.756Z,97347.13
2022-11-15T17:03:07.991Z,97342.81
2022-11-15T17:05:36.035Z,97339.81
2022-11-15T17:08:04.030Z,97340.06
2022-11-15T17:10:32.021Z,97326.25
2022-11-15T17:13:01.521Z,97342.53
2022-11-15T17:15:31.854Z,97348.97
2022-11-15T17:18:00.633Z,97340.84
2022-11-15T17:20:28.658Z,97343.06
2022-11-15T17:22:57.033Z,97336.56
2022-11-15T17:25:25.023Z,97338.16
2022-11-15T17:27:53.283Z,97338.75
2022-11-15T17:30:24.959Z,97339.22
2022-11-15T17:32:52.978Z,97338.41
2022-11-15T17:35:20.964Z,97334.59
2022-11-15T17:37:49.085Z,97337.56
2022-11-15T17:40:17.101Z,97332.75
2022-11-15T17:42:45.099Z,97326.84
2022-11-15T17:45:14.167Z,97327.81
2022-11-15T17:47:43.521Z,97325.38
2022-11-15T17:50:11.784Z,97320.81
2022-11-15T17:52:39.768Z,97320.53
2022-11-15T17:55:08.061Z,97315.97
2022-11-15T17:57:36.043Z,97321.88
2022-11-15T18:00:04.872Z,97318.69
2022-11-15T18:02:32.943Z,97330.22
2022-11-15T18:05:03.222Z,97324.34
2022-11-15T18:07:31.263Z,97321.31
2022-11-15T18:09:59.312Z,97317.56
2022-11-15T18:12:27.360Z,97307.28
2022-11-15T18:14:55.353Z,97300.75
2022-11-15T18:17:23.813Z,97296.97
2022-11-15T18:19:51.933Z,97308.34
2022-11-15T18:22:22.022Z,97307.28
2022-11-15T18:25:04.465Z,97305.41
2022-11-15T18:27:35.500Z,97318.97
2022-11-15T18:30:03.631Z,97304.84
2022-11-15T18:32:32.824Z,97304.03
2022-11-15T18:35:00.922Z,97303.22
2022-11-15T18:37:33.879Z,97310.78
2022-11-15T18:40:01.943Z,97313.56
2022-11-15T18:42:36.284Z,97313.41
2022-11-15T18:45:04.666Z,97307.91
2022-11-15T18:47:32.707Z,97306.88
2022-11-15T18:50:00.779Z,97306.38
2022-11-15T18:52:30.499Z,97300.41
2022-11-15T18:54:59.131Z,97298.56
2022-11-15T18:57:27.164Z,97297.22
2022-11-15T18:59:55.164Z,97300.78
2022-11-15T19:02:23.192Z,97291.28
2022-11-15T19:04:54.294Z,97272.31
2022-11-15T19:07:25.324Z,97265.00
2022-11-15T19:09:56.107Z,97270.41
2022-11-15T19:12:24.338Z,97262.03
2022-11-15T19:14:52.394Z,97259.78
2022-11-15T19:17:20.392Z,97265.25
2022-11-15T19:19:48.488Z,97249.00
2022-11-15T19:22:16.572Z,97264.09
2022-11-15T19:24:44.669Z,97266.78
2022-11-15T19:27:14.052Z,97247.81
2022-11-15T19:29:42.442Z,97255.16
2022-11-15T19:32:10.541Z,97248.16
2022-11-15T19:34:41.545Z,97250.34
2022-11-15T19:37:09.567Z,97251.41
2022-11-15T19:39:41.015Z,97243.84
2022-11-15T19:42:19.267Z,97247.66
2022-11-15T19:44:50.171Z,97238.69
2022-11-15T19:47:18.208Z,97251.13
2022-11-15T19:49:46.558Z,97246.50
2022-11-15T19:52:14.595Z,97244.38
2022-11-15T19:54:42.559Z,97243.28
2022-11-15T19:57:10.765Z,97241.94
2022-11-15T19:59:42.476Z,97236.50
2022-11-15T20:02:12.600Z,97239.50
2022-11-15T20:04:40.621Z,97222.16
2022-11-15T20:07:10.508Z,97227.31
2022-11-15T20:09:41.844Z,97233.78
2022-11-15T20:12:10.045Z,97224.03
2022-11-15T20:14:49.030Z,97224.59
2022-11-15T20:17:17.253Z,97227.31
2022-11-15T20:19:45.274Z,97235.66
2022-11-15T20:22:15.408Z,97234.84
2022-11-15T20:24:43.432Z,97227.78
2022-11-15T20:27:14.091Z,97223.75
2022-11-15T20:29:45.148Z,97228.03
2022-11-15T20:32:15.849Z,97229.13
2022-11-15T20:34:46.339Z,97225.34
2022-11-15T20:37:17.387Z,97209.16
2022-11-15T20:39:45.428Z,97209.16
2022-11-15T20:42:13.676Z,97214.53
2022-11-15T20:44:43.270Z,97212.13
2022-11-15T20:47:11.385Z,97188.56
2022-11-15T20:49:40.774Z,97190.72
2022-11-15T20:52:08.774Z,97183.16
2022-11-15T20:54:38.899Z,97184.22
2022-11-15T20:57:09.966Z,97184.47
2022-11-15T20:59:38.073Z,97177.19
2022-11-15T21:02:06.268Z,97182.88
2022-11-15T21:04:34.497Z,97178.25
2022-11-15T21:07:06.284Z,97173.94
2022-11-15T21:10:01.871Z,97168.53
2022-11-15T21:12:33.141Z,97166.06
2022-11-15T21:15:05.432Z,97160.38
2022-11-15T21:17:33.510Z,97154.19
2022-11-15T21:20:01.466Z,97147.38
2022-11-15T21:22:31.230Z,97144.13
2022-11-15T21:25:01.537Z,97126.03
2022-11-15T21:27:29.638Z,97138.19
2022-11-15T21:29:57.863Z,97134.94
2022-11-15T21:32:25.903Z,97137.09
2022-11-15T21:34:56.104Z,97141.44
2022-11-15T21:37:26.432Z,97131.13
2022-11-15T21:39:57.634Z,97140.31
2022-11-15T21:42:25.678Z,97139.25
2022-11-15T21:44:53.779Z,97144.09
2022-11-15T21:47:21.866Z,97141.69
2022-11-15T21:49:49.860Z,97137.34
2022-11-15T21:52:22.662Z,97142.16
2022-11-15T21:54:50.802Z,97137.50
2022-11-15T21:57:26.751Z,97137.06
2022-11-15T22:02:39.140Z,97151.63
2022-11-15T22:05:07.864Z,97156.03
2022-11-15T22:07:35.978Z,97150.81
2022-11-15T22:10:04.486Z,97149.38
2022-11-15T22:12:32.553Z,97148.31
2022-11-15T22:15:00.521Z,97135.47
2022-11-15T22:17:48.585Z,97141.28
2022-11-15T22:23:06.819Z,97154.22
2022-11-15T22:25:34.877Z,97146.53
2022-11-15T22:28:02.989Z,97140.50
2022-11-15T22:30:31.105Z,97134.84
2022-11-15T22:32:59.236Z,97134.63
2022-11-15T22:35:28.734Z,97131.97
2022-11-15T22:37:56.844Z,97128.34
2022-11-15T22:40:27.316Z,97123.78
2022-11-15T22:42:55.488Z,97133.59
2022-11-15T22:45:23.828Z,97129.63
2022-11-15T22:47:51.893Z,97128.25
2022-11-15T22:50:20.101Z,97123.47
2022-11-15T22:52:49.818Z,97119.97
2022-11-15T22:55:18.000Z,97115.56
2022-11-15T22:57:46.247Z,97118.28
2022-11-15T23:00:15.766Z,97108.28
2022-11-15T23:02:43.851Z,97106.09
2022-11-15T23:05:12.115Z,97098.03
2022-11-15T23:07:40.227Z,97100.19
2022-11-15T23:10:27.824Z,97102.84
2022-11-15T23:13:13.937Z,97107.63
2022-11-15T23:15:59.518Z,97118.53
2022-11-15T23:18:28.684Z,97124.34
2022-11-15T23:20:56.785Z,97131.50
2022-11-15T23:23:23.988Z,97129.19
2022-11-15T23:25:59.769Z,97115.59
2022-11-15T23:28:30.567Z,97128.47
2022-11-15T23:31:20.633Z,97125.59
2022-11-15T23:34:00.751Z,97117.59
2022-11-15T23:36:29.710Z,97118.41
2022-11-15T23:38:59.840Z,97130.16
2022-11-15T23:41:29.336Z,97129.28
2022-11-15T23:43:57.408Z,97123.63
2022-11-15T23:46:25.520Z,97129.19
2022-11-15T23:48:53.791Z,97110.97
2022-11-15T23:51:23.956Z,97113.66
2022-11-15T23:53:52.094Z,97112.03
2022-11-15T23:56:20.968Z,97106.47
2022-11-15T23:58:50.462Z,97116.78
